| time (UTC) | temp F | wind direction | speed MPH | gust MPH | rain 1hr in | rain 24hr in | rain mn in | humidity % | barometer mb |
| 20260902051538 | 60 | 173 | 18.0 | 0.0 | 0.00 | 0.00 | 0.00 | 59 | 1005.5 |
| 20260902051049 | 62 | 124 | 21.0 | 0.0 | 0.00 | 0.00 | 0.00 | 50 | 1005.4 |
| 20260902050514 | 62 | 175 | 22.0 | 0.0 | 0.00 | 0.00 | 0.00 | 50 | 1005.1 |
| 20260902050038 | 61 | 167 | 21.0 | 0.0 | 0.00 | 0.00 | 0.00 | 51 | 1005.1 |
| 20260902045546 | 62 | 167 | 22.0 | 0.0 | 0.00 | 0.00 | 0.00 | 50 | 1005.2 |
| 20260902045100 | 62 | 130 | 21.0 | 0.0 | 0.00 | 0.00 | 0.00 | 48 | 1005.2 |
| 20260902044512 | 63 | 111 | 20.0 | 0.0 | 0.00 | 0.00 | 0.00 | 46 | 1005.4 |
| 20260902044035 | 63 | 146 | 19.0 | 0.0 | 0.00 | 0.00 | 0.00 | 45 | 1005.1 |
| 20260902043547 | 64 | 175 | 19.0 | 0.0 | 0.00 | 0.00 | 0.00 | 45 | 1004.8 |
| 20260902043058 | 64 | 184 | 16.0 | 0.0 | 0.00 | 0.00 | 0.00 | 47 | 1004.2 |
| 20260902042603 | 63 | 182 | 9.0 | 0.0 | 0.00 | 0.00 | 0.00 | 56 | 1003.9 |
| 20260902042020 | 62 | 155 | 8.0 | 0.0 | 0.00 | 0.00 | 0.00 | 56 | 1003.3 |
| 20260902041531 | 62 | 178 | 9.0 | 0.0 | 0.00 | 0.00 | 0.00 | 56 | 1003.3 |
| 20260902041053 | 61 | 188 | 8.0 | 0.0 | 0.00 | 0.00 | 0.00 | 57 | 1003.3 |
| 20260902040505 | 61 | 172 | 8.0 | 0.0 | 0.00 | 0.00 | 0.00 | 58 | 1003.4 |
| 20260902040020 | 60 | 174 | 7.0 | 0.0 | 0.00 | 0.00 | 0.00 | 58 | 1003.4 |
| 20260902035536 | 61 | 184 | 7.0 | 0.0 | 0.00 | 0.00 | 0.00 | 58 | 1003.4 |
| 20260902035015 | 61 | 198 | 8.0 | 0.0 | 0.00 | 0.00 | 0.00 | 57 | 1003.3 |
| 20260902034530 | 61 | 176 | 9.0 | 0.0 | 0.00 | 0.00 | 0.00 | 57 | 1003.2 |
| 20260902034044 | 61 | 169 | 8.0 | 0.0 | 0.00 | 0.00 | 0.00 | 57 | 1003.2 |
| 20260902033555 | 61 | 172 | 7.0 | 0.0 | 0.00 | 0.00 | 0.00 | 56 | 1003.0 |
| 20260902033010 | 61 | 183 | 7.0 | 0.0 | 0.00 | 0.00 | 0.00 | 55 | 1003.0 |
| 20260902032538 | 61 | 186 | 6.0 | 0.0 | 0.00 | 0.00 | 0.00 | 55 | 1002.9 |
| 20260902032048 | 61 | 192 | 5.0 | 0.0 | 0.00 | 0.00 | 0.00 | 54 | 1002.9 |
| 20260902031507 | 62 | 194 | 6.0 | 0.0 | 0.00 | 0.00 | 0.00 | 54 | 1003.0 |
| 20260902031028 | 62 | 198 | 6.0 | 0.0 | 0.00 | 0.00 | 0.00 | 54 | 1003.0 |
| 20260902030539 | 62 | 190 | 7.0 | 0.0 | 0.00 | 0.00 | 0.00 | 54 | 1003.0 |
| 20260902030057 | 62 | 193 | 7.0 | 0.0 | 0.00 | 0.00 | 0.00 | 53 | 1002.9 |
| 20260902025503 | 62 | 177 | 7.0 | 0.0 | 0.00 | 0.00 | 0.00 | 52 | 1003.1 |
| 20260902025018 | 63 | 161 | 7.0 | 0.0 | 0.00 | 0.00 | 0.00 | 51 | 1003.0 |
| 20260902024536 | 63 | 186 | 7.0 | 0.0 | 0.00 | 0.00 | 0.00 | 50 | 1002.9 |
| 20260902024038 | 63 | 168 | 8.0 | 0.0 | 0.00 | 0.00 | 0.00 | 50 | 1002.7 |
| 20260902023108 | 64 | 136 | 8.0 | 0.0 | 0.00 | 0.00 | 0.00 | 50 | 1002.6 |
| 20260902022601 | 64 | 167 | 7.0 | 0.0 | 0.00 | 0.00 | 0.00 | 50 | 1002.7 |
| 20260902022046 | 64 | 157 | 6.0 | 0.0 | 0.00 | 0.00 | 0.00 | 51 | 1002.7 |
| 20260902021544 | 64 | 144 | 6.0 | 0.0 | 0.00 | 0.00 | 0.00 | 51 | 1002.6 |
| 20260902021042 | 64 | 157 | 8.0 | 0.0 | 0.00 | 0.00 | 0.00 | 51 | 1002.7 |
| 20260902020552 | 65 | 145 | 9.0 | 0.0 | 0.00 | 0.00 | 0.00 | 50 | 1002.7 |
| 20260902020003 | 66 | 149 | 8.0 | 0.0 | 0.00 | 0.00 | 0.00 | 49 | 1002.6 |
| 20260902015600 | 66 | 156 | 9.0 | 0.0 | 0.00 | 0.00 | 0.00 | 49 | 1002.6 |
| 20260902015108 | 67 | 129 | 9.0 | 0.0 | 0.00 | 0.00 | 0.00 | 49 | 1002.6 |
| 20260902014553 | 67 | 173 | 9.0 | 0.0 | 0.00 | 0.00 | 0.00 | 48 | 1002.7 |
| 20260902014003 | 68 | 182 | 10.0 | 0.0 | 0.00 | 0.00 | 0.00 | 48 | 1002.5 |
| 20260902013505 | 68 | 157 | 11.0 | 0.0 | 0.00 | 0.00 | 0.00 | 47 | 1002.6 |
| 20260902013018 | 68 | 150 | 12.0 | 0.0 | 0.00 | 0.00 | 0.00 | 46 | 1002.6 |
| 20260902012521 | 69 | 155 | 14.0 | 0.0 | 0.00 | 0.00 | 0.00 | 47 | 1002.6 |
| 20260902012023 | 69 | 123 | 15.0 | 0.0 | 0.00 | 0.00 | 0.00 | 47 | 1002.8 |
| 20260902011534 | 69 | 128 | 15.0 | 0.0 | 0.00 | 0.00 | 0.00 | 47 | 1002.8 |
| 20260902011037 | 70 | 157 | 14.0 | 0.0 | 0.00 | 0.00 | 0.00 | 45 | 1002.6 |
| 20260902010543 | 70 | 127 | 14.0 | 0.0 | 0.00 | 0.00 | 0.00 | 42 | 1002.6 |
| 20260902010055 | 70 | 192 | 14.0 | 0.0 | 0.00 | 0.00 | 0.00 | 43 | 1002.6 |
| 20260902005608 | 71 | 169 | 14.0 | 0.0 | 0.00 | 0.00 | 0.00 | 44 | 1002.6 |
| 20260902005002 | 71 | 184 | 14.0 | 0.0 | 0.00 | 0.00 | 0.00 | 42 | 1002.5 |
| 20260902004501 | 72 | 169 | 14.0 | 0.0 | 0.00 | 0.00 | 0.00 | 43 | 1002.4 |
| 20260902004025 | 71 | 146 | 14.0 | 0.0 | 0.00 | 0.00 | 0.00 | 43 | 1002.5 |
| 20260902003538 | 71 | 126 | 15.0 | 0.0 | 0.00 | 0.00 | 0.00 | 44 | 1002.5 |
| 20260902003048 | 71 | 123 | 16.0 | 0.0 | 0.00 | 0.00 | 0.00 | 43 | 1002.5 |
| 20260902002554 | 71 | 140 | 15.0 | 0.0 | 0.00 | 0.00 | 0.00 | 44 | 1002.5 |
| 20260902002049 | 71 | 121 | 17.0 | 0.0 | 0.00 | 0.00 | 0.00 | 43 | 1002.4 |
| 20260902001604 | 72 | 154 | 16.0 | 0.0 | 0.00 | 0.00 | 0.00 | 42 | 1002.4 |
| 20260902001053 | 72 | 146 | 16.0 | 0.0 | 0.00 | 0.00 | 0.00 | 42 | 1002.5 |
| 20260902000551 | 72 | 130 | 17.0 | 0.0 | 0.00 | 0.00 | 0.00 | 41 | 1002.6 |
| 20260902000100 | 73 | 129 | 16.0 | 0.0 | 0.00 | 0.00 | 0.00 | 41 | 1002.3 |
| 20260901235505 | 73 | 141 | 16.0 | 0.0 | 0.00 | 0.00 | 0.00 | 40 | 1002.4 |
| 20260901235100 | 73 | 142 | 15.0 | 0.0 | 0.00 | 0.00 | 0.00 | 40 | 1002.5 |
| 20260901234504 | 73 | 127 | 13.0 | 0.0 | 0.00 | 0.00 | 0.00 | 40 | 1002.4 |
| 20260901234007 | 74 | 159 | 14.0 | 0.0 | 0.00 | 0.00 | 0.00 | 40 | 1002.3 |
| 20260901233519 | 73 | 125 | 14.0 | 0.0 | 0.00 | 0.00 | 0.00 | 40 | 1002.5 |
| 20260901233049 | 73 | 137 | 15.0 | 0.0 | 0.00 | 0.00 | 0.00 | 39 | 1002.5 |
| 20260901232523 | 73 | 138 | 15.0 | 0.0 | 0.00 | 0.00 | 0.00 | 39 | 1002.6 |
| 20260901232023 | 73 | 138 | 14.0 | 0.0 | 0.00 | 0.00 | 0.00 | 41 | 1002.7 |
| 20260901231541 | 72 | 181 | 15.0 | 0.0 | 0.00 | 0.00 | 0.00 | 40 | 1002.7 |
| 20260901231048 | 72 | 155 | 15.0 | 0.0 | 0.00 | 0.00 | 0.00 | 41 | 1002.6 |
| 20260901230559 | 72 | 120 | 15.0 | 0.0 | 0.00 | 0.00 | 0.00 | 40 | 1002.9 |
| 20260901230124 | 73 | 116 | 15.0 | 0.0 | 0.00 | 0.00 | 0.00 | 40 | 1002.9 |
| 20260901225506 | 74 | 175 | 15.0 | 0.0 | 0.00 | 0.00 | 0.00 | 38 | 1002.9 |
| 20260901225011 | 74 | 170 | 16.0 | 0.0 | 0.00 | 0.00 | 0.00 | 38 | 1002.8 |
| 20260901224603 | 74 | 149 | 15.0 | 0.0 | 0.00 | 0.00 | 0.00 | 37 | 1002.9 |
| 20260901224100 | 75 | 140 | 15.0 | 0.0 | 0.00 | 0.00 | 0.00 | 37 | 1003.2 |
| 20260901223547 | 75 | 136 | 16.0 | 0.0 | 0.00 | 0.00 | 0.00 | 36 | 1003.0 |
| 20260901223045 | 74 | 149 | 16.0 | 0.0 | 0.00 | 0.00 | 0.00 | 36 | 1003.1 |
| 20260901222540 | 75 | 184 | 15.0 | 0.0 | 0.00 | 0.00 | 0.00 | 36 | 1003.2 |
| 20260901222046 | 74 | 165 | 16.0 | 0.0 | 0.00 | 0.00 | 0.00 | 36 | 1003.3 |
| 20260901221557 | 74 | 175 | 16.0 | 0.0 | 0.00 | 0.00 | 0.00 | 37 | 1003.2 |
| 20260901221003 | 74 | 150 | 16.0 | 0.0 | 0.00 | 0.00 | 0.00 | 37 | 1003.1 |
| 20260901220516 | 74 | 98 | 17.0 | 0.0 | 0.00 | 0.00 | 0.00 | 37 | 1003.2 |
| 20260901220043 | 74 | 124 | 16.0 | 0.0 | 0.00 | 0.00 | 0.00 | 36 | 1003.2 |
| 20260901215552 | 74 | 126 | 16.0 | 0.0 | 0.00 | 0.00 | 0.00 | 36 | 1003.3 |
| 20260901215101 | 74 | 129 | 15.0 | 0.0 | 0.00 | 0.00 | 0.00 | 36 | 1003.4 |
| 20260901214517 | 75 | 163 | 14.0 | 0.0 | 0.00 | 0.00 | 0.00 | 34 | 1003.5 |
| 20260901214017 | 74 | 171 | 15.0 | 0.0 | 0.00 | 0.00 | 0.00 | 36 | 1003.7 |
| 20260901213540 | 74 | 174 | 15.0 | 0.0 | 0.00 | 0.00 | 0.00 | 35 | 1003.8 |
| 20260901213116 | 73 | 174 | 14.0 | 0.0 | 0.00 | 0.00 | 0.00 | 36 | 1003.8 |
| 20260901212558 | 73 | 200 | 13.0 | 0.0 | 0.00 | 0.00 | 0.00 | 31 | 1003.9 |
| 20260901212016 | 74 | 145 | 13.0 | 0.0 | 0.00 | 0.00 | 0.00 | 32 | 1003.9 |
| 20260901211529 | 72 | 131 | 13.0 | 0.0 | 0.00 | 0.00 | 0.00 | 35 | 1004.1 |
| 20260901211043 | 72 | 126 | 14.0 | 0.0 | 0.00 | 0.00 | 0.00 | 34 | 1004.0 |
| 20260901210541 | 72 | 106 | 14.0 | 0.0 | 0.00 | 0.00 | 0.00 | 35 | 1004.0 |
| 20260901210051 | 72 | 136 | 14.0 | 0.0 | 0.00 | 0.00 | 0.00 | 34 | 1003.9 |
| 20260901205502 | 72 | 142 | 13.0 | 0.0 | 0.00 | 0.00 | 0.00 | 34 | 1004.0 |
| 20260901205014 | 73 | 173 | 12.0 | 0.0 | 0.00 | 0.00 | 0.00 | 34 | 1004.2 |
| 20260901204525 | 73 | 187 | 13.0 | 0.0 | 0.00 | 0.00 | 0.00 | 35 | 1004.3 |
| 20260901204039 | 73 | 146 | 13.0 | 0.0 | 0.00 | 0.00 | 0.00 | 36 | 1004.2 |
| 20260901203551 | 73 | 182 | 13.0 | 0.0 | 0.00 | 0.00 | 0.00 | 36 | 1004.4 |
| 20260901203119 | 72 | 174 | 13.0 | 0.0 | 0.00 | 0.00 | 0.00 | 36 | 1004.4 |
| 20260901202606 | 72 | 134 | 13.0 | 0.0 | 0.00 | 0.00 | 0.00 | 36 | 1004.6 |
| 20260901202015 | 72 | 156 | 13.0 | 0.0 | 0.00 | 0.00 | 0.00 | 36 | 1004.7 |
| 20260901201533 | 72 | 165 | 13.0 | 0.0 | 0.00 | 0.00 | 0.00 | 37 | 1004.7 |
| 20260901201043 | 72 | 143 | 13.0 | 0.0 | 0.00 | 0.00 | 0.00 | 37 | 1004.7 |
| 20260901200552 | 71 | 174 | 14.0 | 0.0 | 0.00 | 0.00 | 0.00 | 38 | 1004.7 |
| 20260901195507 | 71 | 199 | 14.0 | 0.0 | 0.00 | 0.00 | 0.00 | 38 | 1004.9 |
| 20260901195021 | 71 | 123 | 15.0 | 0.0 | 0.00 | 0.00 | 0.00 | 38 | 1005.1 |
| 20260901194541 | 71 | 155 | 15.0 | 0.0 | 0.00 | 0.00 | 0.00 | 37 | 1005.1 |
| 20260901194046 | 70 | 146 | 15.0 | 0.0 | 0.00 | 0.00 | 0.00 | 40 | 1005.1 |
| 20260901193557 | 70 | 174 | 14.0 | 0.0 | 0.00 | 0.00 | 0.00 | 40 | 1005.3 |
| 20260901193009 | 70 | 193 | 14.0 | 0.0 | 0.00 | 0.00 | 0.00 | 40 | 1005.4 |
| 20260901192533 | 70 | 173 | 15.0 | 0.0 | 0.00 | 0.00 | 0.00 | 39 | 1005.4 |
| 20260901192047 | 71 | 157 | 14.0 | 0.0 | 0.00 | 0.00 | 0.00 | 38 | 1005.5 |
| 20260901191617 | 70 | 145 | 13.0 | 0.0 | 0.00 | 0.00 | 0.00 | 39 | 1005.6 |
| 20260901191007 | 70 | 167 | 13.0 | 0.0 | 0.00 | 0.00 | 0.00 | 38 | 1005.7 |
| 20260901190531 | 70 | 188 | 13.0 | 0.0 | 0.00 | 0.00 | 0.00 | 37 | 1005.9 |
| 20260901190039 | 70 | 150 | 12.0 | 0.0 | 0.00 | 0.00 | 0.00 | 38 | 1005.9 |
| 20260901185602 | 70 | 197 | 13.0 | 0.0 | 0.00 | 0.00 | 0.00 | 37 | 1006.1 |
| 20260901185018 | 70 | 168 | 13.0 | 0.0 | 0.00 | 0.00 | 0.00 | 37 | 1006.2 |
| 20260901184539 | 70 | 178 | 13.0 | 0.0 | 0.00 | 0.00 | 0.00 | 37 | 1006.2 |
| 20260901184050 | 70 | 180 | 14.0 | 0.0 | 0.00 | 0.00 | 0.00 | 38 | 1006.2 |
| 20260901183504 | 70 | 202 | 13.0 | 0.0 | 0.00 | 0.00 | 0.00 | 39 | 1006.3 |
| 20260901183030 | 69 | 153 | 14.0 | 0.0 | 0.00 | 0.00 | 0.00 | 39 | 1006.3 |
| 20260901182548 | 69 | 201 | 14.0 | 0.0 | 0.00 | 0.00 | 0.00 | 38 | 1006.2 |
| 20260901182009 | 69 | 178 | 13.0 | 0.0 | 0.00 | 0.00 | 0.00 | 38 | 1006.3 |
| 20260901181527 | 69 | 159 | 13.0 | 0.0 | 0.00 | 0.00 | 0.00 | 38 | 1006.2 |
| 20260901181038 | 69 | 167 | 13.0 | 0.0 | 0.00 | 0.00 | 0.00 | 39 | 1006.3 |
| 20260901180549 | 68 | 169 | 14.0 | 0.0 | 0.00 | 0.00 | 0.00 | 41 | 1006.3 |
| 20260901175515 | 67 | 205 | 13.0 | 0.0 | 0.00 | 0.00 | 0.00 | 41 | 1006.6 |
| 20260901175036 | 66 | 196 | 13.0 | 0.0 | 0.00 | 0.00 | 0.00 | 41 | 1006.7 |
| 20260901174557 | 66 | 192 | 13.0 | 0.0 | 0.00 | 0.00 | 0.00 | 42 | 1006.7 |
| 20260901174106 | 67 | 194 | 13.0 | 0.0 | 0.00 | 0.00 | 0.00 | 43 | 1006.7 |
| 20260901173515 | 67 | 182 | 13.0 | 0.0 | 0.00 | 0.00 | 0.00 | 43 | 1006.7 |
| 20260901173035 | 67 | 187 | 14.0 | 0.0 | 0.00 | 0.00 | 0.00 | 44 | 1006.7 |
| 20260901172548 | 67 | 188 | 13.0 | 0.0 | 0.00 | 0.00 | 0.00 | 44 | 1006.6 |
| 20260901172059 | 67 | 203 | 13.0 | 0.0 | 0.00 | 0.00 | 0.00 | 46 | 1006.6 |
| 20260901171506 | 65 | 189 | 13.0 | 0.0 | 0.00 | 0.00 | 0.00 | 47 | 1006.6 |
| 20260901171013 | 64 | 178 | 14.0 | 0.0 | 0.00 | 0.00 | 0.00 | 49 | 1006.6 |
| 20260901170538 | 64 | 190 | 13.0 | 0.0 | 0.00 | 0.00 | 0.00 | 50 | 1006.6 |
| 20260901170056 | 64 | 218 | 14.0 | 0.0 | 0.00 | 0.00 | 0.00 | 50 | 1006.6 |
| 20260901165502 | 63 | 207 | 15.0 | 0.0 | 0.00 | 0.00 | 0.00 | 52 | 1006.6 |
| 20260901165021 | 62 | 186 | 16.0 | 0.0 | 0.00 | 0.00 | 0.00 | 55 | 1006.6 |
| 20260901164547 | 62 | 217 | 14.0 | 0.0 | 0.00 | 0.00 | 0.00 | 55 | 1006.6 |
| 20260901164050 | 62 | 206 | 14.0 | 0.0 | 0.00 | 0.00 | 0.00 | 56 | 1006.5 |
| 20260901163559 | 61 | 133 | 14.0 | 0.0 | 0.00 | 0.00 | 0.00 | 57 | 1006.5 |
| 20260901163006 | 61 | 202 | 15.0 | 0.0 | 0.00 | 0.00 | 0.00 | 57 | 1006.4 |
| 20260901162516 | 61 | 171 | 16.0 | 0.0 | 0.00 | 0.00 | 0.00 | 59 | 1006.4 |
| 20260901162035 | 60 | 200 | 16.0 | 0.0 | 0.00 | 0.00 | 0.00 | 59 | 1006.4 |
| 20260901161551 | 60 | 188 | 15.0 | 0.0 | 0.00 | 0.00 | 0.00 | 60 | 1006.4 |
| 20260901161058 | 60 | 214 | 14.0 | 0.0 | 0.00 | 0.00 | 0.00 | 61 | 1006.4 |
| 20260901160508 | 60 | 171 | 14.0 | 0.0 | 0.00 | 0.00 | 0.00 | 62 | 1006.6 |
| 20260901160017 | 60 | 190 | 14.0 | 0.0 | 0.00 | 0.00 | 0.00 | 61 | 1006.6 |
| 20260901155541 | 60 | 173 | 14.0 | 0.0 | 0.00 | 0.00 | 0.00 | 61 | 1006.7 |
| 20260901155057 | 60 | 196 | 13.0 | 0.0 | 0.00 | 0.00 | 0.00 | 61 | 1006.8 |
| 20260901154502 | 60 | 186 | 15.0 | 0.0 | 0.00 | 0.00 | 0.00 | 61 | 1006.7 |
| 20260901154014 | 60 | 130 | 16.0 | 0.0 | 0.00 | 0.00 | 0.00 | 62 | 1006.9 |
| 20260901153524 | 60 | 142 | 15.0 | 0.0 | 0.00 | 0.00 | 0.00 | 63 | 1006.8 |
| 20260901153046 | 59 | 178 | 16.0 | 0.0 | 0.00 | 0.00 | 0.00 | 63 | 1006.9 |
| 20260901152546 | 59 | 135 | 17.0 | 0.0 | 0.00 | 0.00 | 0.00 | 63 | 1006.9 |
| 20260901152008 | 59 | 178 | 18.0 | 0.0 | 0.00 | 0.00 | 0.00 | 61 | 1006.9 |
| 20260901151524 | 59 | 151 | 18.0 | 0.0 | 0.00 | 0.00 | 0.00 | 61 | 1006.9 |
| 20260901151034 | 59 | 154 | 18.0 | 0.0 | 0.00 | 0.00 | 0.00 | 61 | 1006.9 |
| 20260901150545 | 59 | 116 | 18.0 | 0.0 | 0.00 | 0.00 | 0.00 | 60 | 1006.9 |
| 20260901150009 | 60 | 127 | 15.0 | 0.0 | 0.00 | 0.00 | 0.00 | 59 | 1006.9 |
| 20260901145530 | 60 | 157 | 13.0 | 0.0 | 0.00 | 0.00 | 0.00 | 59 | 1006.9 |
| 20260901145042 | 60 | 133 | 13.0 | 0.0 | 0.00 | 0.00 | 0.00 | 59 | 1007.0 |
| 20260901144556 | 60 | 175 | 13.0 | 0.0 | 0.00 | 0.00 | 0.00 | 59 | 1007.0 |
| 20260901144023 | 60 | 155 | 13.0 | 0.0 | 0.00 | 0.00 | 0.00 | 59 | 1006.9 |
| 20260901143532 | 60 | 188 | 12.0 | 0.0 | 0.00 | 0.00 | 0.00 | 59 | 1006.8 |
| 20260901143047 | 59 | 167 | 11.0 | 0.0 | 0.00 | 0.00 | 0.00 | 58 | 1007.0 |
| 20260901142601 | 59 | 151 | 12.0 | 0.0 | 0.00 | 0.00 | 0.00 | 59 | 1007.0 |
| 20260901142022 | 59 | 153 | 15.0 | 0.0 | 0.00 | 0.00 | 0.00 | 60 | 1006.8 |
| 20260901141529 | 59 | 163 | 14.0 | 0.0 | 0.00 | 0.00 | 0.00 | 60 | 1006.8 |
| 20260901141037 | 59 | 178 | 12.0 | 0.0 | 0.00 | 0.00 | 0.00 | 59 | 1006.8 |
| 20260901140550 | 60 | 167 | 11.0 | 0.0 | 0.00 | 0.00 | 0.00 | 56 | 1006.8 |
| 20260901140014 | 59 | 160 | 13.0 | 0.0 | 0.00 | 0.00 | 0.00 | 57 | 1006.7 |
| 20260901135524 | 59 | 193 | 15.0 | 0.0 | 0.00 | 0.00 | 0.00 | 58 | 1006.6 |
| 20260901135033 | 59 | 198 | 15.0 | 0.0 | 0.00 | 0.00 | 0.00 | 59 | 1006.7 |
| 20260901134543 | 59 | 197 | 14.0 | 0.0 | 0.00 | 0.00 | 0.00 | 61 | 1006.7 |
| 20260901134002 | 59 | 214 | 16.0 | 0.0 | 0.00 | 0.00 | 0.00 | 63 | 1006.9 |
| 20260901133521 | 59 | 182 | 18.0 | 0.0 | 0.00 | 0.00 | 0.00 | 62 | 1006.8 |
| 20260901133038 | 59 | 180 | 17.0 | 0.0 | 0.00 | 0.00 | 0.00 | 62 | 1006.8 |
| 20260901132548 | 59 | 178 | 16.0 | 0.0 | 0.00 | 0.00 | 0.00 | 60 | 1006.7 |
| 20260901132017 | 60 | 179 | 13.0 | 0.0 | 0.00 | 0.00 | 0.00 | 61 | 1006.7 |
| 20260901131526 | 61 | 200 | 11.0 | 0.0 | 0.00 | 0.00 | 0.00 | 55 | 1006.6 |
| 20260901131039 | 60 | 190 | 12.0 | 0.0 | 0.00 | 0.00 | 0.00 | 56 | 1006.4 |
| 20260901130546 | 60 | 188 | 14.0 | 0.0 | 0.00 | 0.00 | 0.00 | 57 | 1006.4 |
| 20260901130008 | 60 | 178 | 16.0 | 0.0 | 0.00 | 0.00 | 0.00 | 59 | 1006.7 |
| 20260901125521 | 60 | 161 | 18.0 | 0.0 | 0.00 | 0.00 | 0.00 | 59 | 1006.7 |
| 20260901125027 | 60 | 193 | 17.0 | 0.0 | 0.00 | 0.00 | 0.00 | 59 | 1006.8 |
| 20260901124539 | 60 | 142 | 16.0 | 0.0 | 0.00 | 0.00 | 0.00 | 59 | 1006.9 |
| 20260901124047 | 60 | 170 | 16.0 | 0.0 | 0.00 | 0.00 | 0.00 | 59 | 1006.8 |
| 20260901123559 | 60 | 192 | 17.0 | 0.0 | 0.00 | 0.00 | 0.00 | 59 | 1006.8 |
| 20260901123021 | 60 | 190 | 15.0 | 0.0 | 0.00 | 0.00 | 0.00 | 59 | 1006.8 |
| 20260901122533 | 60 | 187 | 16.0 | 0.0 | 0.00 | 0.00 | 0.00 | 59 | 1006.8 |
| 20260901122051 | 60 | 134 | 18.0 | 0.0 | 0.00 | 0.00 | 0.00 | 59 | 1006.7 |
| 20260901121606 | 60 | 130 | 17.0 | 0.0 | 0.00 | 0.00 | 0.00 | 59 | 1006.7 |
| 20260901121029 | 60 | 163 | 15.0 | 0.0 | 0.00 | 0.00 | 0.00 | 58 | 1006.8 |
| 20260901120551 | 60 | 148 | 16.0 | 0.0 | 0.00 | 0.00 | 0.00 | 58 | 1006.8 |
| 20260901120001 | 60 | 132 | 15.0 | 0.0 | 0.00 | 0.00 | 0.00 | 58 | 1006.6 |
| 20260901115510 | 61 | 162 | 14.0 | 0.0 | 0.00 | 0.00 | 0.00 | 57 | 1006.7 |
| 20260901115023 | 61 | 177 | 13.0 | 0.0 | 0.00 | 0.00 | 0.00 | 57 | 1006.8 |
| 20260901114542 | 61 | 123 | 13.0 | 0.0 | 0.00 | 0.00 | 0.00 | 57 | 1006.7 |
| 20260901114050 | 61 | 184 | 13.0 | 0.0 | 0.00 | 0.00 | 0.00 | 56 | 1006.7 |
| 20260901113502 | 61 | 165 | 14.0 | 0.0 | 0.00 | 0.00 | 0.00 | 56 | 1006.6 |
| 20260901113001 | 61 | 164 | 14.0 | 0.0 | 0.00 | 0.00 | 0.00 | 56 | 1006.6 |
| 20260901112513 | 61 | 169 | 14.0 | 0.0 | 0.00 | 0.00 | 0.00 | 56 | 1006.6 |
| 20260901112020 | 61 | 150 | 14.0 | 0.0 | 0.00 | 0.00 | 0.00 | 56 | 1006.7 |
| 20260901111531 | 61 | 139 | 14.0 | 0.0 | 0.00 | 0.00 | 0.00 | 56 | 1006.8 |
| 20260901111045 | 61 | 148 | 14.0 | 0.0 | 0.00 | 0.00 | 0.00 | 56 | 1006.7 |
| 20260901110505 | 61 | 184 | 15.0 | 0.0 | 0.00 | 0.00 | 0.00 | 55 | 1006.8 |
| 20260901110024 | 61 | 172 | 15.0 | 0.0 | 0.00 | 0.00 | 0.00 | 55 | 1006.8 |
| 20260901105540 | 61 | 180 | 15.0 | 0.0 | 0.00 | 0.00 | 0.00 | 55 | 1006.9 |
| 20260901105051 | 61 | 190 | 14.0 | 0.0 | 0.00 | 0.00 | 0.00 | 55 | 1006.8 |
| 20260901104504 | 62 | 140 | 14.0 | 0.0 | 0.00 | 0.00 | 0.00 | 54 | 1006.9 |
| 20260901104019 | 62 | 154 | 13.0 | 0.0 | 0.00 | 0.00 | 0.00 | 54 | 1006.8 |
| 20260901103538 | 62 | 160 | 13.0 | 0.0 | 0.00 | 0.00 | 0.00 | 53 | 1007.0 |
| 20260901103053 | 62 | 170 | 15.0 | 0.0 | 0.00 | 0.00 | 0.00 | 53 | 1006.9 |
| 20260901102601 | 63 | 135 | 17.0 | 0.0 | 0.00 | 0.00 | 0.00 | 51 | 1007.0 |
| 20260901102020 | 63 | 157 | 18.0 | 0.0 | 0.00 | 0.00 | 0.00 | 51 | 1006.9 |
| 20260901101542 | 63 | 139 | 17.0 | 0.0 | 0.00 | 0.00 | 0.00 | 51 | 1007.1 |
| 20260901101053 | 63 | 140 | 17.0 | 0.0 | 0.00 | 0.00 | 0.00 | 51 | 1007.0 |
| 20260901100502 | 63 | 140 | 16.0 | 0.0 | 0.00 | 0.00 | 0.00 | 51 | 1007.2 |
| 20260901100024 | 63 | 173 | 14.0 | 0.0 | 0.00 | 0.00 | 0.00 | 51 | 1007.2 |
| 20260901095536 | 63 | 185 | 12.0 | 0.0 | 0.00 | 0.00 | 0.00 | 52 | 1007.2 |
| 20260901095052 | 63 | 144 | 12.0 | 0.0 | 0.00 | 0.00 | 0.00 | 51 | 1007.3 |
| 20260901094602 | 63 | 159 | 11.0 | 0.0 | 0.00 | 0.00 | 0.00 | 52 | 1007.5 |
| 20260901094019 | 62 | 142 | 10.0 | 0.0 | 0.00 | 0.00 | 0.00 | 51 | 1007.5 |
| 20260901093534 | 63 | 156 | 10.0 | 0.0 | 0.00 | 0.00 | 0.00 | 51 | 1007.5 |
| 20260901093047 | 62 | 182 | 11.0 | 0.0 | 0.00 | 0.00 | 0.00 | 51 | 1007.6 |
| 20260901092505 | 63 | 139 | 11.0 | 0.0 | 0.00 | 0.00 | 0.00 | 50 | 1007.7 |
| 20260901092016 | 63 | 194 | 12.0 | 0.0 | 0.00 | 0.00 | 0.00 | 50 | 1007.7 |
| 20260901091532 | 62 | 131 | 11.0 | 0.0 | 0.00 | 0.00 | 0.00 | 49 | 1007.8 |
| 20260901091037 | 62 | 146 | 11.0 | 0.0 | 0.00 | 0.00 | 0.00 | 49 | 1007.9 |
| 20260901090502 | 62 | 132 | 11.0 | 0.0 | 0.00 | 0.00 | 0.00 | 49 | 1007.9 |
| 20260901090013 | 63 | 173 | 12.0 | 0.0 | 0.00 | 0.00 | 0.00 | 48 | 1008.1 |
| 20260901085529 | 63 | 146 | 12.0 | 0.0 | 0.00 | 0.00 | 0.00 | 48 | 1008.1 |
| 20260901085047 | 63 | 186 | 12.0 | 0.0 | 0.00 | 0.00 | 0.00 | 47 | 1008.1 |
| 20260901084601 | 63 | 167 | 11.0 | 0.0 | 0.00 | 0.00 | 0.00 | 47 | 1008.1 |
| 20260901084021 | 63 | 148 | 11.0 | 0.0 | 0.00 | 0.00 | 0.00 | 46 | 1008.2 |
| 20260901083535 | 63 | 169 | 12.0 | 0.0 | 0.00 | 0.00 | 0.00 | 46 | 1008.2 |
| 20260901083050 | 64 | 148 | 12.0 | 0.0 | 0.00 | 0.00 | 0.00 | 46 | 1008.3 |
| 20260901082557 | 64 | 120 | 12.0 | 0.0 | 0.00 | 0.00 | 0.00 | 44 | 1008.3 |
| 20260901082002 | 64 | 148 | 15.0 | 0.0 | 0.00 | 0.00 | 0.00 | 43 | 1008.4 |
| 20260901081519 | 64 | 180 | 17.0 | 0.0 | 0.00 | 0.00 | 0.00 | 42 | 1008.4 |
| 20260901081039 | 65 | 142 | 17.0 | 0.0 | 0.00 | 0.00 | 0.00 | 41 | 1008.4 |
| 20260901080551 | 65 | 145 | 17.0 | 0.0 | 0.00 | 0.00 | 0.00 | 40 | 1008.6 |
| 20260901080105 | 65 | 150 | 17.0 | 0.0 | 0.00 | 0.00 | 0.00 | 39 | 1008.6 |
| 20260901075509 | 64 | 139 | 18.0 | 0.0 | 0.00 | 0.00 | 0.00 | 37 | 1008.6 |
| 20260901075017 | 64 | 133 | 19.0 | 0.0 | 0.00 | 0.00 | 0.00 | 36 | 1008.6 |
| 20260901074544 | 63 | 134 | 19.0 | 0.0 | 0.00 | 0.00 | 0.00 | 35 | 1008.6 |
| 20260901074038 | 63 | 112 | 16.0 | 0.0 | 0.00 | 0.00 | 0.00 | 32 | 1008.4 |
| 20260901073555 | 61 | 121 | 15.0 | 0.0 | 0.00 | 0.00 | 0.00 | 34 | 1008.5 |
| 20260901073106 | 61 | 144 | 13.0 | 0.0 | 0.00 | 0.00 | 0.00 | 34 | 1008.5 |
| 20260901072508 | 60 | 122 | 9.0 | 0.0 | 0.00 | 0.00 | 0.00 | 36 | 1008.5 |
| 20260901072029 | 59 | 165 | 7.0 | 0.0 | 0.00 | 0.00 | 0.00 | 37 | 1008.6 |
| 20260901071545 | 56 | 184 | 6.0 | 0.0 | 0.00 | 0.00 | 0.00 | 40 | 1008.6 |
| 20260901071007 | 54 | 186 | 6.0 | 0.0 | 0.00 | 0.00 | 0.00 | 47 | 1008.8 |
| 20260901070527 | 55 | 221 | 7.0 | 0.0 | 0.00 | 0.00 | 0.00 | 47 | 1008.7 |
| 20260901070040 | 55 | 225 | 7.0 | 0.0 | 0.00 | 0.00 | 0.00 | 44 | 1008.7 |
| 20260901065601 | 56 | 238 | 6.0 | 0.0 | 0.00 | 0.00 | 0.00 | 44 | 1008.7 |
| 20260901065002 | 56 | 207 | 5.0 | 0.0 | 0.00 | 0.00 | 0.00 | 39 | 1008.8 |
| 20260901064530 | 56 | 193 | 7.0 | 0.0 | 0.00 | 0.00 | 0.00 | 42 | 1008.8 |
| 20260901064043 | 55 | 176 | 8.0 | 0.0 | 0.00 | 0.00 | 0.00 | 44 | 1008.7 |
| 20260901063556 | 55 | 202 | 8.0 | 0.0 | 0.00 | 0.00 | 0.00 | 45 | 1008.8 |
| 20260901063022 | 55 | 184 | 7.0 | 0.0 | 0.00 | 0.00 | 0.00 | 45 | 1008.6 |
| 20260901062532 | 54 | 186 | 5.0 | 0.0 | 0.00 | 0.00 | 0.00 | 46 | 1008.5 |
| 20260901062048 | 54 | 155 | 4.0 | 0.0 | 0.00 | 0.00 | 0.00 | 46 | 1008.7 |
| 20260901061556 | 55 | 152 | 5.0 | 0.0 | 0.00 | 0.00 | 0.00 | 46 | 1008.7 |
| 20260901061014 | 55 | 165 | 7.0 | 0.0 | 0.00 | 0.00 | 0.00 | 45 | 1008.8 |
| 20260901060523 | 55 | 159 | 8.0 | 0.0 | 0.00 | 0.00 | 0.00 | 44 | 1009.0 |
| 20260901060033 | 55 | 172 | 8.0 | 0.0 | 0.00 | 0.00 | 0.00 | 44 | 1009.1 |
| 20260901055540 | 55 | 199 | 8.0 | 0.0 | 0.00 | 0.00 | 0.00 | 45 | 1008.9 |
| 20260901055054 | 55 | 202 | 9.0 | 0.0 | 0.00 | 0.00 | 0.00 | 44 | 1008.9 |
| 20260901054603 | 55 | 188 | 8.0 | 0.0 | 0.00 | 0.00 | 0.00 | 44 | 1008.9 |
| 20260901054026 | 55 | 179 | 7.0 | 0.0 | 0.00 | 0.00 | 0.00 | 45 | 1008.9 |
| 20260901053540 | 55 | 194 | 8.0 | 0.0 | 0.00 | 0.00 | 0.00 | 44 | 1009.0 |
| 20260901053112 | 55 | 161 | 7.0 | 0.0 | 0.00 | 0.00 | 0.00 | 44 | 1008.9 |
| 20260901052507 | 55 | 192 | 7.0 | 0.0 | 0.00 | 0.00 | 0.00 | 44 | 1009.0 |
| 20260901052033 | 55 | 186 | 7.0 | 0.0 | 0.00 | 0.00 | 0.00 | 44 | 1009.1 |
| 20260901051610 | 55 | 179 | 7.0 | 0.0 | 0.00 | 0.00 | 0.00 | 44 | 1009.2 |